This is the latest recevied weather packets stored in our database for station/object G4MDP-13. If no packets are shown the sender has not sent any weather packets the latest 10 day(s).
| Time | Temp. | Humidity | Pressure | Rain* | Wind** | Luminosity | Snow |
|---|---|---|---|---|---|---|---|
| 1777988058 | 17.22° C | 47% | 1005.3 hPa | 0 mm | - | - | - |
| 1777987158 | 17.22° C | 47% | 1005.3 hPa | 0 mm | - | - | - |
| 1777987157 | 17.22° C | 47% | 1005.3 hPa | 0 mm | - | - | - |
| 1777986317 | 17.78° C | 46% | 1005.4 hPa | 0 mm | - | - | - |
| 1777986260 | 18.33° C | 46% | 1005.4 hPa | 0 mm | - | - | - |
| 1777986258 | 18.33° C | 46% | 1005.4 hPa | 0 mm | - | - | - |
| 1777985358 | 17.78° C | 48% | 1005.3 hPa | 0 mm | - | - | - |
| 1777985357 | 17.78° C | 48% | 1005.3 hPa | 0 mm | - | - | - |
| 1777984517 | 17.78° C | 47% | 1005.3 hPa | 0 mm | - | - | - |
| 1777984461 | 18.33° C | 47% | 1005.2 hPa | 0 mm | - | - | - |
| 1777984458 | 18.33° C | 47% | 1005.2 hPa | 0 mm | - | - | - |
| 1777983558 | 17.78° C | 49% | 1005.4 hPa | 0 mm | - | - | - |
| 1777983557 | 17.78° C | 49% | 1005.4 hPa | 0 mm | - | - | - |
| 1777982717 | 18.89° C | 47% | 1005.6 hPa | 0 mm | - | - | - |
| 1777982660 | 18.33° C | 47% | 1005.6 hPa | 0 mm | - | - | - |
| 1777982658 | 18.33° C | 47% | 1005.6 hPa | 0 mm | - | - | - |
| 1777981758 | 16.11° C | 52% | 1005.8 hPa | 0 mm | - | - | - |
| 1777981757 | 16.11° C | 52% | 1005.8 hPa | 0 mm | - | - | - |
| 1777980917 | 16.11° C | 54% | 1005.6 hPa | 0 mm | - | - | - |
| 1777980860 | 16.11° C | 54% | 1005.6 hPa | 0 mm | - | - | - |
| 1777980858 | 16.11° C | 54% | 1005.6 hPa | 0 mm | - | - | - |
| 1777979958 | 15.56° C | 58% | 1005.8 hPa | 0 mm | - | - | - |
| 1777979957 | 15.56° C | 58% | 1005.8 hPa | 0 mm | - | - | - |
| 1777979117 | 15.56° C | 58% | 1005.9 hPa | 0 mm | - | - | - |
| 1777979058 | 15.56° C | 58% | 1006 hPa | 0 mm | - | - | - |
* Rain latest hour (hover to see other rain measurements)
** Current wind speed in m/s (hover to see current wind gust speed)